Time;durP1;ratioP1;P1;durP2;ratioP2;P2;SDS_P1;SDS_P2;PMS_P1;PMS_P2;Temp;Humidity;BMP_temperature;BMP_pressure;BME280_temperature;BME280_humidity;BME280_pressure;Samples;Min_cycle;Max_cycle;Signal;HPM_P1;HPM_P2
2022/08/20 00:00:59;;;;;;;9.93;3.28;;;;;;;26.51;56.24;98100.53;4471972;32;20131;-87
2022/08/20 00:03:28;;;;;;;11.70;3.37;;;;;;;26.44;54.61;98100.53;4486549;32;20092;-88
2022/08/20 00:05:58;;;;;;;12.37;3.42;;;;;;;26.40;55.48;98101.13;4472132;32;20085;-87
2022/08/20 00:08:24;;;;;;;10.35;3.10;;;;;;;26.55;55.49;98100.97;4486435;32;20092;-87
2022/08/20 00:10:51;;;;;;;13.25;3.25;;;;;;;26.59;55.90;98104.97;4472321;32;20126;-87
2022/08/20 00:13:24;;;;;;;9.07;2.95;;;;;;;26.65;55.49;98104.13;4472019;32;20088;-86
2022/08/20 00:15:51;;;;;;;10.20;2.72;;;;;;;26.67;55.61;98111.00;4486291;32;20105;-87
2022/08/20 00:18:16;;;;;;;9.30;3.00;;;;;;;26.72;55.71;98115.81;4472064;32;20112;-88
2022/08/20 00:20:46;;;;;;;10.38;3.03;;;;;;;26.66;55.88;98120.16;4486196;32;20172;-88
2022/08/20 00:23:12;;;;;;;10.55;2.97;;;;;;;26.52;54.88;98129.22;4486261;32;20141;-88
2022/08/20 00:25:38;;;;;;;10.27;3.00;;;;;;;26.57;54.55;98131.31;4486019;32;20129;-88
2022/08/20 00:28:05;;;;;;;9.48;3.08;;;;;;;26.56;54.70;98135.88;4472171;32;20225;-88
2022/08/20 00:30:33;;;;;;;11.85;3.22;;;;;;;26.63;55.01;98130.53;4486153;32;20118;-87
2022/08/20 00:33:06;;;;;;;10.80;3.03;;;;;;;26.61;55.13;98138.00;4486061;32;20159;-87
2022/08/20 00:35:34;;;;;;;13.13;3.67;;;;;;;26.62;54.27;98140.50;4486083;32;20459;-86
2022/08/20 00:37:59;;;;;;;15.05;3.50;;;;;;;26.58;54.78;98144.62;4471691;32;20096;-87
2022/08/20 00:40:29;;;;;;;11.30;3.33;;;;;;;26.59;55.08;98138.19;4486068;32;20110;-86
2022/08/20 00:42:57;;;;;;;11.60;3.45;;;;;;;26.60;55.19;98125.53;4471737;32;20123;-88
2022/08/20 00:45:25;;;;;;;12.32;3.20;;;;;;;26.47;52.58;98135.22;4485807;32;20085;-87
2022/08/20 00:47:54;;;;;;;13.50;3.37;;;;;;;26.48;54.15;98139.59;4486362;32;20119;-87
2022/08/20 00:50:23;;;;;;;11.93;3.15;;;;;;;26.35;52.56;98136.84;4488064;32;20440;-88
2022/08/20 00:52:50;;;;;;;11.80;3.35;;;;;;;26.42;51.50;98131.44;4488066;32;20481;-87
2022/08/20 00:55:17;;;;;;;11.40;3.22;;;;;;;26.35;50.20;98128.75;4473771;32;20100;-88
2022/08/20 00:57:46;;;;;;;10.90;3.45;;;;;;;26.36;51.93;98125.00;4473853;32;20160;-88
2022/08/20 01:00:18;;;;;;;14.05;3.80;;;;;;;26.47;53.40;98129.00;4488049;32;20092;-88
2022/08/20 01:02:45;;;;;;;12.88;3.40;;;;;;;26.45;53.50;98123.78;4487684;32;20508;-87
2022/08/20 01:05:11;;;;;;;14.05;3.78;;;;;;;26.16;54.31;98108.72;4488013;32;20122;-88
2022/08/20 01:07:37;;;;;;;14.25;3.50;;;;;;;26.37;54.51;98109.63;4487902;32;20108;-88
2022/08/20 01:10:07;;;;;;;12.50;3.65;;;;;;;26.39;54.67;98103.00;4473587;32;20120;-88
2022/08/20 01:12:32;;;;;;;10.98;3.30;;;;;;;26.35;55.29;98090.94;4473690;32;20504;-88
2022/08/20 01:15:00;;;;;;;12.90;3.17;;;;;;;26.24;54.86;98078.00;4473615;32;20111;-88
2022/08/20 01:17:29;;;;;;;9.27;3.58;;;;;;;26.20;54.37;98068.66;4487870;32;20162;-88
2022/08/20 01:19:59;;;;;;;11.88;3.35;;;;;;;26.20;53.48;98063.25;4473644;32;20112;-88
2022/08/20 01:25:48;;;;;;;12.37;3.90;;;;;;;26.25;52.56;98048.13;4487793;32;20809;-88
2022/08/20 01:28:17;;;;;;;9.88;3.40;;;;;;;26.34;54.82;98047.91;4473608;32;20104;-88
2022/08/20 01:30:43;;;;;;;9.95;3.50;;;;;;;26.22;54.29;98031.47;4473465;32;20108;-88
2022/08/20 01:33:08;;;;;;;12.73;3.90;;;;;;;26.28;55.14;98036.06;4487812;32;20096;-87
2022/08/20 01:35:36;;;;;;;9.82;3.42;;;;;;;26.30;55.69;98023.19;4487658;32;20080;-87
2022/08/20 01:38:03;;;;;;;11.68;3.00;;;;;;;26.30;55.67;98023.19;4473444;32;20176;-87
2022/08/20 01:40:43;;;;;;;12.00;3.75;;;;;;;26.06;52.51;98025.41;4473271;32;20112;-86
2022/08/20 01:43:09;;;;;;;13.48;4.00;;;;;;;26.16;53.66;98021.50;4487772;32;20164;-87
2022/08/20 01:45:35;;;;;;;12.90;4.10;;;;;;;26.18;55.18;98024.81;4487758;32;20116;-86
2022/08/20 01:48:01;;;;;;;14.40;4.28;;;;;;;25.93;55.33;98028.03;4487826;32;20168;-87
2022/08/20 01:50:28;;;;;;;11.88;4.18;;;;;;;25.96;55.32;98022.25;4473704;32;20130;-87
2022/08/20 01:53:24;;;;;;;11.70;4.12;;;;;;;25.76;54.79;98021.28;4473478;32;20165;-88
2022/08/20 01:55:50;;;;;;;13.27;3.80;;;;;;;25.49;55.42;98027.34;4487110;32;20118;-87
2022/08/20 01:58:15;;;;;;;13.95;4.53;;;;;;;25.50;53.70;98029.03;4487472;32;20097;-86
2022/08/20 02:00:41;;;;;;;10.80;3.97;;;;;;;25.27;56.31;98036.56;4487409;32;20092;-87
2022/08/20 02:03:07;;;;;;;14.23;4.40;;;;;;;25.46;56.46;98037.72;4487294;32;20092;-87
2022/08/20 02:05:33;;;;;;;13.30;3.97;;;;;;;25.43;56.44;98028.16;4487456;32;20387;-91
2022/08/20 02:08:00;;;;;;;14.77;4.47;;;;;;;24.65;58.71;98041.59;4473405;32;20138;-90
2022/08/20 02:10:26;;;;;;;13.23;4.30;;;;;;;24.97;58.13;98027.78;4473199;32;20449;-89
2022/08/20 02:12:52;;;;;;;11.25;4.53;;;;;;;25.23;57.76;98035.28;4487529;32;20451;-89
2022/08/20 02:15:17;;;;;;;9.55;3.72;;;;;;;25.29;57.70;98040.72;4487410;32;20114;-89
2022/08/20 02:17:43;;;;;;;11.90;3.97;;;;;;;25.16;56.74;98042.44;4487347;32;20116;-88
2022/08/20 02:20:13;;;;;;;11.77;3.60;;;;;;;25.09;55.69;98043.22;4487443;32;20148;-90
2022/08/20 02:22:43;;;;;;;10.93;3.30;;;;;;;24.99;56.00;98041.87;4473104;32;20088;-90
2022/08/20 02:25:10;;;;;;;11.82;3.87;;;;;;;25.14;53.77;98039.94;4487579;32;20164;-89
2022/08/20 02:27:38;;;;;;;16.73;4.00;;;;;;;25.06;54.41;98038.22;4473265;32;20112;-87
2022/08/20 02:30:09;;;;;;;14.90;4.25;;;;;;;25.18;55.75;98051.16;4487250;32;20493;-89
2022/08/20 02:32:36;;;;;;;11.68;4.32;;;;;;;25.05;56.67;98055.44;4487326;32;20474;-90
2022/08/20 02:35:07;;;;;;;15.37;4.10;;;;;;;25.25;56.91;98049.41;4487264;32;20100;-93
2022/08/20 02:37:34;;;;;;;13.23;3.90;;;;;;;25.36;57.08;98050.69;4473372;32;20570;-92
2022/08/20 02:39:59;;;;;;;12.10;4.00;;;;;;;25.03;56.31;98059.31;4487233;32;20104;-88
2022/08/20 02:42:25;;;;;;;11.68;3.97;;;;;;;24.67;58.16;98063.78;4472905;32;20114;-89
2022/08/20 02:44:51;;;;;;;16.98;4.30;;;;;;;24.56;58.76;98055.38;4487276;32;20161;-87
2022/08/20 02:47:17;;;;;;;10.93;3.62;;;;;;;24.65;58.67;98071.22;4472880;32;20163;-94
2022/08/20 02:49:43;;;;;;;11.93;4.15;;;;;;;24.87;58.06;98074.72;4487301;32;20119;-92
2022/08/20 02:52:08;;;;;;;12.20;3.55;;;;;;;24.71;57.38;98073.13;4487330;32;20119;-89
2022/08/20 02:54:34;;;;;;;13.65;3.83;;;;;;;24.90;57.50;98074.34;4487120;32;20458;-91
2022/08/20 02:57:01;;;;;;;12.30;3.70;;;;;;;25.00;57.70;98068.62;4487177;32;20088;-87
2022/08/20 02:59:26;;;;;;;12.43;4.28;;;;;;;24.88;57.09;98076.41;4487023;32;20132;-83
2022/08/20 03:01:52;;;;;;;12.90;4.18;;;;;;;24.99;57.28;98085.00;4487032;32;20111;-86
2022/08/20 03:04:17;;;;;;;12.00;4.20;;;;;;;24.92;57.64;98084.94;4486969;32;20080;-85
2022/08/20 03:06:42;;;;;;;12.60;3.92;;;;;;;24.90;58.05;98087.84;4487115;32;20100;-85
2022/08/20 03:09:08;;;;;;;14.70;4.00;;;;;;;25.14;57.94;98098.41;4472720;32;20115;-85
2022/08/20 03:11:34;;;;;;;13.52;3.92;;;;;;;24.84;57.86;98115.53;4486229;32;20124;-86
2022/08/20 03:13:59;;;;;;;12.40;4.32;;;;;;;24.93;57.73;98118.94;4487063;32;20480;-85
2022/08/20 03:16:25;;;;;;;12.63;4.12;;;;;;;24.56;58.63;98130.78;4486935;32;20531;-86
2022/08/20 03:18:50;;;;;;;13.50;3.95;;;;;;;24.99;56.76;98130.81;4486952;32;20088;-87
2022/08/20 03:21:15;;;;;;;10.50;3.72;;;;;;;24.40;58.26;98121.84;4487028;32;20132;-89
2022/08/20 03:23:41;;;;;;;12.90;4.75;;;;;;;23.94;60.20;98122.06;4487040;32;20378;-90
2022/08/20 03:26:09;;;;;;;15.95;4.87;;;;;;;24.47;58.96;98119.22;4472561;32;20135;-90
2022/08/20 03:28:34;;;;;;;13.25;4.30;;;;;;;24.82;58.80;98127.50;4472657;32;20119;-90
2022/08/20 03:31:00;;;;;;;13.70;4.00;;;;;;;25.01;58.65;98142.22;4472576;32;20443;-92
2022/08/20 03:33:27;;;;;;;12.57;4.12;;;;;;;25.05;57.53;98124.63;4486833;32;20371;-91
2022/08/20 03:35:53;;;;;;;13.32;4.37;;;;;;;24.85;55.66;98117.19;4486877;32;20130;-91
2022/08/20 03:38:19;;;;;;;12.57;4.37;;;;;;;25.13;54.79;98132.63;4472487;32;20468;-90
2022/08/20 03:40:45;;;;;;;12.93;4.20;;;;;;;24.57;58.27;98154.81;4472449;32;20092;-89
2022/08/20 03:43:11;;;;;;;14.32;4.68;;;;;;;24.67;58.34;98141.87;4472354;32;20382;-90
2022/08/20 03:45:38;;;;;;;16.33;4.82;;;;;;;24.87;58.45;98143.94;4486796;32;20443;-87
2022/08/20 03:48:06;;;;;;;14.35;4.80;;;;;;;25.01;57.73;98142.22;4472526;32;20108;-86
2022/08/20 03:50:32;;;;;;;13.25;4.32;;;;;;;24.93;57.98;98141.31;4472467;32;20192;-86
2022/08/20 03:52:59;;;;;;;12.87;5.00;;;;;;;25.13;58.05;98143.41;4472289;32;20088;-90
2022/08/20 03:55:26;;;;;;;14.73;5.28;;;;;;;25.04;58.53;98142.69;4486499;32;20096;-94
2022/08/20 03:58:00;;;;;;;16.17;5.45;;;;;;;24.96;58.48;98148.19;4486629;32;20096;-86
2022/08/20 04:00:33;;;;;;;14.43;4.90;;;;;;;24.91;58.75;98147.94;4486566;32;20096;-86
2022/08/20 04:02:59;;;;;;;14.05;5.30;;;;;;;24.50;59.70;98133.16;4471970;32;20122;-87
2022/08/20 04:05:27;;;;;;;12.98;4.97;;;;;;;24.51;59.99;98132.16;4472191;32;20364;-91
2022/08/20 04:07:52;;;;;;;;;;;;;;;24.77;59.51;98124.59;4486826;32;20084;-90
2022/08/20 04:10:18;;;;;;;14.00;4.45;;;;;;;24.92;58.82;98136.13;4472223;32;19982;-92
2022/08/20 04:12:43;;;;;;;14.80;4.78;;;;;;;24.89;58.65;98145.41;4471950;32;20352;-90
2022/08/20 04:15:11;;;;;;;12.73;5.05;;;;;;;24.70;59.43;98146.88;4486373;32;20112;-91
2022/08/20 04:17:40;;;;;;;12.68;4.78;;;;;;;24.70;59.46;98146.03;4486251;32;20116;-90
2022/08/20 04:20:09;;;;;;;13.30;4.55;;;;;;;24.67;59.46;98141.06;4472132;32;20111;-89
2022/08/20 04:22:35;;;;;;;12.95;5.07;;;;;;;24.82;58.79;98133.75;4458898;32;20098;-92
2022/08/20 04:25:01;;;;;;;12.95;5.20;;;;;;;24.89;58.84;98129.25;4474108;32;20530;-93
2022/08/20 04:27:27;;;;;;;12.40;4.70;;;;;;;24.51;59.52;98107.94;4488230;32;20118;-92
2022/08/20 04:29:53;;;;;;;15.82;4.90;;;;;;;24.44;60.03;98103.47;4488134;32;20129;-90
2022/08/20 04:32:20;;;;;;;15.18;5.53;;;;;;;24.62;59.53;98106.59;4488139;32;20076;-91
2022/08/20 04:34:45;;;;;;;12.52;4.50;;;;;;;24.34;60.86;98112.66;4488553;32;20435;-87
2022/08/20 04:37:12;;;;;;;16.42;5.00;;;;;;;24.08;61.79;98109.63;4488287;32;20110;-88
2022/08/20 04:39:37;;;;;;;12.80;4.10;;;;;;;23.77;62.94;98113.31;4488548;32;20110;-87
2022/08/20 04:42:03;;;;;;;13.23;5.03;;;;;;;23.83;61.49;98114.47;4473991;32;20415;-87
2022/08/20 04:44:28;;;;;;;12.50;4.22;;;;;;;23.93;60.04;98115.00;4461125;32;20100;-88
2022/08/20 04:46:54;;;;;;;14.90;4.22;;;;;;;24.16;59.70;98122.16;4488413;32;20120;-87
2022/08/20 04:49:23;;;;;;;15.60;5.05;;;;;;;24.20;59.90;98128.81;4488160;32;20076;-87
2022/08/20 04:51:49;;;;;;;13.00;4.32;;;;;;;24.46;59.46;98122.97;4488087;32;20068;-87
2022/08/20 04:54:14;;;;;;;12.05;4.78;;;;;;;24.57;59.41;98122.50;4473824;32;20159;-87
2022/08/20 04:56:40;;;;;;;13.35;5.03;;;;;;;24.32;60.83;98122.78;4473797;32;20459;-87
2022/08/20 04:59:08;;;;;;;13.85;5.53;;;;;;;24.21;61.60;98123.25;4488010;32;20471;-88
2022/08/20 05:01:34;;;;;;;13.90;5.55;;;;;;;24.58;60.86;98121.47;4487961;32;20187;-87
2022/08/20 05:03:59;;;;;;;17.35;6.30;;;;;;;24.05;62.93;98121.62;4487829;32;20089;-91
2022/08/20 05:06:28;;;;;;;14.68;5.72;;;;;;;24.17;62.87;98139.97;4488147;32;20085;-89
2022/08/20 05:08:56;;;;;;;13.75;4.93;;;;;;;24.48;62.23;98137.06;4473963;32;20148;-88
2022/08/20 05:11:22;;;;;;;10.88;4.20;;;;;;;24.81;61.42;98142.84;4488127;32;20374;-89
2022/08/20 05:13:47;;;;;;;13.48;3.83;;;;;;;24.56;59.72;98138.84;4475074;32;20112;-87
2022/08/20 05:16:14;;;;;;;10.48;3.47;;;;;;;24.90;57.02;98132.81;4487300;32;20092;-86
2022/08/20 05:18:39;;;;;;;10.68;3.47;;;;;;;24.80;56.24;98134.97;4487435;31;20089;-88
2022/08/20 05:21:05;;;;;;;11.45;4.32;;;;;;;24.91;56.10;98137.16;4474861;32;20144;-89
2022/08/20 05:23:33;;;;;;;12.02;3.65;;;;;;;25.19;55.84;98139.06;4487377;31;20109;-95
2022/08/20 05:25:58;;;;;;;11.60;3.75;;;;;;;25.06;55.83;98132.53;4475238;32;20459;-84
2022/08/20 05:28:31;;;;;;;10.65;3.05;;;;;;;25.02;55.78;98119.66;4472941;32;20132;-86
2022/08/20 05:30:58;;;;;;;10.73;3.42;;;;;;;25.33;55.28;98129.28;4487700;31;20103;-84
2022/08/20 05:33:24;;;;;;;11.73;3.72;;;;;;;25.42;54.78;98118.19;4487341;31;20388;-84
2022/08/20 05:35:51;;;;;;;11.98;3.67;;;;;;;25.57;54.92;98118.06;4486565;32;20100;-86
2022/08/20 05:38:19;;;;;;;13.35;3.83;;;;;;;25.70;55.00;98118.16;4487710;31;20104;-86
2022/08/20 05:40:46;;;;;;;13.23;3.83;;;;;;;25.91;54.21;98113.75;4487256;32;20080;-90
2022/08/20 05:43:11;;;;;;;10.40;3.45;;;;;;;25.67;55.12;98123.09;4488308;31;20100;-88
2022/08/20 05:45:38;;;;;;;11.80;3.90;;;;;;;26.04;53.78;98118.41;4486504;32;20100;-91
2022/08/20 05:49:00;;;;;;;13.10;4.05;;;;;;;26.97;50.68;98117.09;4525541;31;147745;-90
2022/08/20 05:51:27;;;;;;;12.63;3.87;;;;;;;26.98;50.68;98116.88;4514888;31;20496;-90
2022/08/20 05:53:52;;;;;;;12.37;4.00;;;;;;;26.51;51.06;98126.72;4500433;31;20539;-89
2022/08/20 05:56:18;;;;;;;11.20;3.95;;;;;;;26.48;52.00;98126.09;4514847;31;20114;-92
2022/08/20 05:58:43;;;;;;;12.30;3.53;;;;;;;26.47;52.35;98121.72;4514842;31;20114;-87
2022/08/20 06:01:08;;;;;;;12.75;3.58;;;;;;;26.36;52.16;98125.00;4514781;31;20131;-87
2022/08/20 06:06:19;;;;;;;11.90;3.92;;;;;;;26.34;51.73;98123.53;4514946;31;20531;-84
2022/08/20 06:08:44;;;;;;;10.60;3.78;;;;;;;26.47;50.76;98119.00;4494469;31;20427;-84
2022/08/20 06:11:10;;;;;;;11.27;3.60;;;;;;;26.33;50.77;98111.06;4498913;32;20120;-84
2022/08/20 06:13:35;;;;;;;12.68;3.42;;;;;;;26.06;51.00;98108.25;4484377;31;20102;-85
2022/08/20 06:16:01;;;;;;;10.25;2.78;;;;;;;26.11;50.53;98104.94;4496973;32;20094;-86
2022/08/20 06:18:26;;;;;;;12.00;3.20;;;;;;;26.32;49.35;98107.53;4497071;32;20132;-86
2022/08/20 06:20:52;;;;;;;11.20;3.00;;;;;;;26.67;48.14;98104.75;4483592;32;20126;-86
2022/08/20 06:23:18;;;;;;;14.85;3.37;;;;;;;26.91;47.46;98108.78;4498137;31;20092;-85
2022/08/20 06:25:44;;;;;;;11.30;3.22;;;;;;;27.03;47.14;98111.72;4498721;31;20134;-85
2022/08/20 06:28:09;;;;;;;11.43;3.28;;;;;;;27.29;47.58;98115.50;4498691;31;20380;-86
2022/08/20 06:30:35;;;;;;;11.98;3.47;;;;;;;27.19;48.82;98119.41;4484364;32;20108;-85
2022/08/20 06:33:01;;;;;;;12.30;4.03;;;;;;;27.63;50.25;98114.44;4498651;32;20087;-85
2022/08/20 06:35:26;;;;;;;12.20;3.47;;;;;;;27.69;51.53;98132.53;4484368;32;20351;-86
2022/08/20 06:37:52;;;;;;;13.10;4.32;;;;;;;27.82;50.91;98129.00;4498728;32;20389;-86
2022/08/20 06:40:21;;;;;;;12.95;3.60;;;;;;;27.94;51.38;98145.47;4498651;32;20084;-86
2022/08/20 06:42:48;;;;;;;12.48;3.55;;;;;;;27.49;49.63;98145.25;4484400;32;20107;-86
2022/08/20 06:45:16;;;;;;;10.60;3.83;;;;;;;27.61;49.98;98144.41;4498667;32;20098;-85
2022/08/20 06:47:43;;;;;;;9.48;3.17;;;;;;;27.74;49.56;98143.59;4483799;32;20373;-86
2022/08/20 06:50:40;;;;;;;11.82;3.37;;;;;;;28.05;48.49;98155.66;4498535;32;20104;-85
2022/08/20 06:53:07;;;;;;;13.60;3.60;;;;;;;28.13;47.86;98149.16;4468864;32;20159;-86
2022/08/20 06:55:32;;;;;;;11.12;3.28;;;;;;;28.00;48.35;98147.31;4498452;31;20122;-85
2022/08/20 06:58:04;;;;;;;9.63;3.25;;;;;;;28.17;47.77;98161.25;4498635;31;20096;-86
2022/08/20 07:00:32;;;;;;;13.25;4.18;;;;;;;27.97;48.06;98153.12;4487501;32;20178;-85
2022/08/20 07:03:01;;;;;;;13.25;4.93;;;;;;;28.09;49.39;98161.47;4487839;32;20084;-85
2022/08/20 07:05:34;;;;;;;14.38;5.37;;;;;;;27.29;51.79;98172.28;4473554;32;20443;-85
2022/08/20 07:08:00;;;;;;;15.55;5.07;;;;;;;27.79;51.31;98167.31;4460548;32;20444;-85
2022/08/20 07:10:27;;;;;;;16.33;5.22;;;;;;;27.48;51.55;98181.47;4487802;32;20088;-86
2022/08/20 07:12:52;;;;;;;15.48;4.93;;;;;;;27.47;52.00;98188.75;4487811;32;20096;-86
2022/08/20 07:15:20;;;;;;;16.92;5.75;;;;;;;26.49;54.42;98189.03;4473484;32;20325;-86
2022/08/20 07:17:57;;;;;;;14.52;4.90;;;;;;;26.64;53.32;98187.06;4473825;32;20101;-85
2022/08/20 07:20:23;;;;;;;19.30;5.22;;;;;;;26.59;53.28;98192.22;4487724;32;20115;-86
2022/08/20 07:22:49;;;;;;;15.15;4.37;;;;;;;26.89;52.41;98194.66;4460426;32;20088;-86
2022/08/20 07:25:17;;;;;;;11.73;4.47;;;;;;;26.53;52.92;98184.06;4460338;32;20107;-86
2022/08/20 07:27:43;;;;;;;14.00;4.53;;;;;;;26.31;52.99;98194.97;4487552;32;20164;-86
2022/08/20 07:32:56;;;;;;;17.17;4.97;;;;;;;26.38;53.15;98178.81;4475668;32;20495;-86
2022/08/20 07:35:22;;;;;;;15.15;4.40;;;;;;;25.88;54.37;98184.28;4487584;32;20088;-86
2022/08/20 07:37:50;;;;;;;12.95;4.43;;;;;;;26.46;52.56;98184.88;4473231;32;20147;-86
2022/08/20 07:40:19;;;;;;;13.52;4.20;;;;;;;26.68;51.64;98191.03;4473563;32;20176;-86
2022/08/20 07:42:44;;;;;;;13.20;3.90;;;;;;;26.02;52.44;98187.94;4460484;32;20177;-86
2022/08/20 07:45:12;;;;;;;14.32;4.10;;;;;;;25.84;53.49;98178.44;4473403;32;20119;-85
2022/08/20 07:47:38;;;;;;;16.90;4.37;;;;;;;26.26;52.48;98187.47;4473109;32;20084;-86
2022/08/20 07:50:05;;;;;;;15.67;4.43;;;;;;;26.22;54.90;98196.16;4473404;32;20160;-84
2022/08/20 07:52:33;;;;;;;16.25;4.80;;;;;;;25.19;56.97;98212.72;4487473;32;20126;-84
2022/08/20 07:55:03;;;;;;;13.18;4.68;;;;;;;25.70;57.46;98228.75;4487411;32;20369;-84
2022/08/20 07:57:29;;;;;;;17.10;5.37;;;;;;;25.47;57.68;98258.63;4487469;32;20173;-84
2022/08/20 07:59:57;;;;;;;17.67;5.00;;;;;;;25.92;58.39;98281.91;4487529;32;20084;-84
2022/08/20 08:02:23;;;;;;;20.50;6.18;;;;;;;25.64;58.77;98310.47;4487375;32;20100;-84
2022/08/20 08:04:48;;;;;;;15.13;5.35;;;;;;;25.71;58.89;98326.75;4473175;32;20080;-85
2022/08/20 08:07:15;;;;;;;19.45;5.70;;;;;;;25.50;59.85;98314.91;4487274;32;20117;-84
2022/08/20 08:09:43;;;;;;;14.87;6.37;;;;;;;25.67;59.58;98304.69;4487327;31;20088;-84
2022/08/20 08:12:10;;;;;;;15.75;7.20;;;;;;;25.39;60.31;98295.69;4459302;32;20144;-84
2022/08/20 08:14:36;;;;;;;17.25;7.20;;;;;;;25.22;61.48;98289.66;4487392;32;20163;-84
2022/08/20 08:17:03;;;;;;;16.08;7.18;;;;;;;24.68;63.54;98288.97;4473213;32;20456;-84
2022/08/20 08:19:35;;;;;;;16.98;7.07;;;;;;;24.88;62.46;98278.47;4487256;32;20104;-84
2022/08/20 08:22:00;;;;;;;14.65;7.10;;;;;;;24.72;63.67;98302.91;4460586;32;20477;-84
2022/08/20 08:24:26;;;;;;;16.45;6.25;;;;;;;24.99;62.68;98327.53;4487258;32;20137;-84
2022/08/20 08:26:51;;;;;;;12.30;5.37;;;;;;;25.12;62.38;98325.81;4487253;32;20135;-84
2022/08/20 08:29:17;;;;;;;15.60;5.78;;;;;;;25.11;60.61;98334.09;4487351;32;20385;-85
2022/08/20 08:31:42;;;;;;;14.38;5.37;;;;;;;24.85;61.13;98338.13;4487203;32;20088;-85
2022/08/20 08:34:08;;;;;;;15.65;5.35;;;;;;;25.05;60.04;98340.25;4473092;32;20420;-85
2022/08/20 08:36:34;;;;;;;16.95;6.60;;;;;;;24.86;60.54;98342.50;4487213;32;20093;-85
2022/08/20 08:38:59;;;;;;;16.52;5.72;;;;;;;24.93;61.14;98345.28;4487185;32;20376;-85
2022/08/20 08:41:32;;;;;;;16.73;6.10;;;;;;;24.44;62.42;98333.16;4487277;32;20340;-85
2022/08/20 08:44:08;;;;;;;16.87;6.15;;;;;;;24.72;62.50;98319.06;4473021;32;20476;-84
2022/08/20 08:46:39;;;;;;;14.63;6.20;;;;;;;24.61;62.91;98295.28;4473031;32;20165;-85
2022/08/20 08:49:04;;;;;;;15.57;5.53;;;;;;;24.75;63.06;98294.47;4472747;32;20108;-85
2022/08/20 08:51:40;;;;;;;14.55;5.45;;;;;;;24.04;63.38;98286.75;4472928;32;20413;-84
2022/08/20 08:54:06;;;;;;;12.88;5.00;;;;;;;24.36;63.03;98283.91;4473250;32;20119;-84
2022/08/20 08:56:33;;;;;;;13.30;5.43;;;;;;;24.56;62.13;98279.69;4487353;32;20096;-84
2022/08/20 08:59:03;;;;;;;14.23;5.43;;;;;;;24.10;63.23;98280.63;4473137;32;20105;-84
2022/08/20 09:01:31;;;;;;;14.10;5.37;;;;;;;24.40;61.72;98277.16;4473138;32;20174;-84
2022/08/20 09:03:56;;;;;;;11.48;5.18;;;;;;;24.36;61.97;98268.63;4472902;32;20480;-83
2022/08/20 09:06:23;;;;;;;13.62;5.30;;;;;;;24.41;62.54;98254.59;4487128;32;20092;-84
2022/08/20 09:09:02;;;;;;;15.07;5.90;;;;;;;24.38;62.86;98250.44;4472674;32;20104;-84
2022/08/20 09:11:29;;;;;;;15.15;5.87;;;;;;;24.49;62.69;98262.56;4472785;32;20390;-84
2022/08/20 09:13:54;;;;;;;12.60;5.57;;;;;;;24.52;62.69;98264.94;4472647;32;20159;-84
2022/08/20 09:16:24;;;;;;;15.85;6.25;;;;;;;24.68;62.93;98275.50;4472724;32;20446;-84
2022/08/20 09:18:50;;;;;;;14.00;5.60;;;;;;;24.76;nan;98304.19;4487154;32;20164;-84
2022/08/20 09:21:16;;;;;;;15.30;5.85;;;;;;;24.87;63.01;98330.69;4472832;32;20179;-83
2022/08/20 09:23:41;;;;;;;16.95;6.12;;;;;;;24.93;62.88;98340.72;4486687;32;20080;-84
2022/08/20 09:26:07;;;;;;;14.73;6.45;;;;;;;25.07;62.37;98348.97;4487155;32;20096;-84
2022/08/20 09:28:34;;;;;;;15.65;6.10;;;;;;;25.10;62.05;98345.91;4486909;32;20085;-84
2022/08/20 09:30:59;;;;;;;16.10;6.75;;;;;;;25.19;62.10;98354.72;4472799;32;20080;-84
2022/08/20 09:33:25;;;;;;;15.57;6.62;;;;;;;25.20;62.53;98362.63;4486696;32;20111;-84
2022/08/20 09:35:50;;;;;;;14.02;6.28;;;;;;;25.24;62.66;98377.44;4486542;32;20469;-84
2022/08/20 09:38:16;;;;;;;18.77;6.62;;;;;;;25.30;61.87;98367.75;4486637;32;20145;-84
2022/08/20 09:40:41;;;;;;;15.32;6.57;;;;;;;25.29;60.91;98358.00;4486689;32;20479;-84
2022/08/20 09:43:07;;;;;;;16.08;6.15;;;;;;;25.25;60.61;98365.62;4472277;32;20410;-84
2022/08/20 09:45:34;;;;;;;16.02;6.28;;;;;;;25.22;60.84;98349.81;4472402;32;20152;-84
2022/08/20 09:48:00;;;;;;;16.50;6.00;;;;;;;24.80;61.54;98342.38;4486378;32;20088;-84
2022/08/20 09:50:27;;;;;;;15.23;5.87;;;;;;;24.71;62.03;98330.88;4486495;32;20114;-84
2022/08/20 09:52:57;;;;;;;16.70;6.12;;;;;;;24.58;62.55;98323.44;4472619;32;20349;-84
2022/08/20 09:55:29;;;;;;;14.85;6.70;;;;;;;24.19;64.37;98324.47;4472115;32;20492;-84
2022/08/20 09:57:54;;;;;;;16.90;6.62;;;;;;;24.17;64.64;98310.34;4486409;32;20379;-84
2022/08/20 10:00:20;;;;;;;16.10;6.45;;;;;;;23.91;65.73;98286.53;4472099;32;20147;-84
2022/08/20 10:02:45;;;;;;;14.52;6.60;;;;;;;23.78;66.38;98267.44;4486249;32;20325;-83
2022/08/20 10:05:12;;;;;;;17.23;6.95;;;;;;;23.95;66.05;98258.25;4486277;32;20482;-84
2022/08/20 10:07:38;;;;;;;16.55;6.93;;;;;;;23.68;66.96;98241.66;4471892;32;20177;-84
2022/08/20 10:10:05;;;;;;;14.43;6.35;;;;;;;23.64;67.42;98232.28;4486207;32;20119;-83
2022/08/20 10:12:30;;;;;;;16.67;7.00;;;;;;;23.73;66.50;98227.66;4486150;32;20565;-83
2022/08/20 10:14:56;;;;;;;12.35;5.07;;;;;;;23.51;67.17;98215.91;4486158;32;20145;-83
2022/08/20 10:17:21;;;;;;;15.30;4.65;;;;;;;23.56;66.55;98205.44;4486066;32;20092;-83
2022/08/20 10:19:46;;;;;;;13.98;4.82;;;;;;;23.22;66.70;98193.28;4486062;32;20116;-83
2022/08/20 10:22:12;;;;;;;14.80;5.12;;;;;;;22.94;68.37;98171.44;4471626;32;20132;-83
2022/08/20 10:24:37;;;;;;;14.70;5.25;;;;;;;22.75;70.36;98159.31;4485782;32;20089;-83
2022/08/20 10:27:03;;;;;;;12.85;5.93;;;;;;;22.50;72.63;98155.91;4471597;32;20401;-83
2022/08/20 10:29:29;;;;;;;13.80;6.53;;;;;;;23.00;71.14;98159.16;4485944;32;20088;-83
2022/08/20 10:31:58;;;;;;;16.20;6.07;;;;;;;23.07;69.41;98163.66;4485848;32;20378;-84
2022/08/20 10:34:24;;;;;;;13.70;6.30;;;;;;;23.74;70.07;98170.19;4472686;32;20112;-84
2022/08/20 10:36:49;;;;;;;13.75;5.93;;;;;;;24.22;66.84;98183.31;4488064;32;20460;-84
2022/08/20 10:39:14;;;;;;;12.57;5.95;;;;;;;24.13;66.80;98207.63;4473862;32;20089;-84
2022/08/20 10:41:40;;;;;;;11.85;5.50;;;;;;;24.77;64.30;98211.59;4488108;32;20116;-84
2022/08/20 10:44:06;;;;;;;10.65;4.50;;;;;;;25.08;62.86;98232.06;4487926;32;20105;-84
2022/08/20 10:46:32;;;;;;;12.37;4.93;;;;;;;25.58;61.12;98237.59;4473729;32;20117;-84
2022/08/20 10:48:57;;;;;;;15.10;4.95;;;;;;;25.69;58.74;98226.25;4487795;32;20088;-84
2022/08/20 10:51:23;;;;;;;10.90;4.22;;;;;;;26.04;58.08;98243.41;4473631;32;20382;-84
2022/08/20 10:53:48;;;;;;;11.60;4.75;;;;;;;26.56;57.85;98253.88;4473783;32;20113;-84
2022/08/20 10:56:13;;;;;;;13.20;4.95;;;;;;;26.92;57.69;98271.78;4487823;32;20085;-84
2022/08/20 10:58:39;;;;;;;12.57;5.43;;;;;;;27.21;56.69;98276.88;4487905;32;20108;-84
2022/08/20 11:01:04;;;;;;;13.68;5.05;;;;;;;27.32;54.60;98267.38;4487745;32;20084;-84
2022/08/20 11:03:30;;;;;;;12.48;4.07;;;;;;;27.51;54.88;98270.34;4487907;32;20138;-84
2022/08/20 11:05:56;;;;;;;11.55;4.40;;;;;;;27.38;53.83;98269.25;4473563;32;20096;-84
2022/08/20 11:08:21;;;;;;;14.15;4.47;;;;;;;27.01;55.97;98271.41;4487845;32;20093;-84
2022/08/20 11:10:47;;;;;;;11.75;4.18;;;;;;;27.02;55.33;98278.50;4473536;32;20119;-85
2022/08/20 11:13:12;;;;;;;13.40;5.07;;;;;;;27.01;54.50;98275.97;4473463;32;20113;-85
2022/08/20 11:15:40;;;;;;;13.32;4.72;;;;;;;26.73;56.33;98279.56;4487748;32;20115;-84
2022/08/20 11:18:06;;;;;;;12.88;4.00;;;;;;;27.03;55.46;98284.72;4487804;32;20088;-85
2022/08/20 11:20:32;;;;;;;13.50;4.20;;;;;;;26.67;56.43;98292.00;4473397;32;20140;-85
2022/08/20 11:22:58;;;;;;;12.37;4.05;;;;;;;26.78;56.85;98297.91;4487704;32;20096;-84
2022/08/20 11:25:24;;;;;;;11.15;4.22;;;;;;;26.89;53.38;98318.97;4460409;32;20479;-85
2022/08/20 11:27:50;;;;;;;11.02;4.07;;;;;;;26.90;52.72;98307.09;4487609;32;20084;-85
2022/08/20 11:30:20;;;;;;;12.05;4.25;;;;;;;26.85;53.38;98309.59;4487717;32;20110;-85
2022/08/20 11:32:45;;;;;;;13.18;5.32;;;;;;;26.90;53.62;98304.41;4473512;32;20116;-85
2022/08/20 11:35:11;;;;;;;11.70;4.47;;;;;;;26.72;54.29;98294.13;4487684;32;20423;-85